createdAt,value
2017-03-28T00:00:19.627Z,973.17
2017-03-28T00:01:28.667Z,973.18
2017-03-28T00:02:38.067Z,973.17
2017-03-28T00:03:47.802Z,973.18
2017-03-28T00:04:57.452Z,973.17
2017-03-28T00:06:06.228Z,973.15
2017-03-28T00:07:15.627Z,973.12
2017-03-28T00:08:24.419Z,973.17
2017-03-28T00:09:33.833Z,973.09
2017-03-28T00:10:42.932Z,973.09
2017-03-28T00:11:52.019Z,973.11
2017-03-28T00:13:00.801Z,973.1
2017-03-28T00:14:09.906Z,973.1
2017-03-28T00:15:19.609Z,973.08
2017-03-28T00:16:28.963Z,973.07
2017-03-28T00:17:38.059Z,973.05
2017-03-28T00:18:47.488Z,973.04
2017-03-28T00:19:56.277Z,973.02
2017-03-28T00:21:05.877Z,973.05
2017-03-28T00:22:14.653Z,973.06
2017-03-28T00:23:23.388Z,973.07
2017-03-28T00:24:33.100Z,973.06
2017-03-28T00:25:42.433Z,973.06
2017-03-28T00:26:51.460Z,973.05
2017-03-28T00:28:00.495Z,973.05
2017-03-28T00:29:09.897Z,973.05
2017-03-28T00:30:20.228Z,973.06
2017-03-28T00:31:29.515Z,973.06
2017-03-28T00:32:38.604Z,972.99
2017-03-28T00:33:48.928Z,973.03
2017-03-28T00:34:58.627Z,973.03
2017-03-28T00:36:07.689Z,973.04
2017-03-28T00:37:16.460Z,973.06
2017-03-28T00:38:25.495Z,973
2017-03-28T00:39:34.602Z,973
2017-03-28T00:40:43.683Z,973.03
2017-03-28T00:41:52.781Z,973.03
2017-03-28T00:43:01.577Z,973.02
2017-03-28T00:44:11.453Z,973
2017-03-28T00:45:21.165Z,973.02
2017-03-28T00:46:29.902Z,973.02
2017-03-28T00:47:38.696Z,972.97
2017-03-28T00:48:48.695Z,972.98
2017-03-28T00:49:58.663Z,972.95
2017-03-28T00:51:07.457Z,972.97
2017-03-28T00:52:16.563Z,972.94
2017-03-28T00:53:25.660Z,972.96
2017-03-28T00:54:35.377Z,972.95
2017-03-28T00:55:44.480Z,972.94
2017-03-28T00:56:53.792Z,972.89
2017-03-28T00:58:03.442Z,972.89
2017-03-28T00:59:13.756Z,972.89
2017-03-28T01:00:23.777Z,972.85
2017-03-28T01:01:32.561Z,972.84
2017-03-28T01:02:41.359Z,972.89
2017-03-28T01:03:51.063Z,972.86
2017-03-28T01:05:00.468Z,972.82
2017-03-28T01:06:09.506Z,972.81
2017-03-28T01:07:18.592Z,972.79
2017-03-28T01:08:27.686Z,972.8
2017-03-28T01:09:36.750Z,972.79
2017-03-28T01:10:45.541Z,972.76
2017-03-28T01:11:55.237Z,972.73
2017-03-28T01:13:04.281Z,972.74
2017-03-28T01:14:13.720Z,972.71
2017-03-28T01:15:23.164Z,972.73
2017-03-28T01:16:31.938Z,972.69
2017-03-28T01:17:40.974Z,972.69
2017-03-28T01:18:50.680Z,972.68
2017-03-28T01:20:00.080Z,972.69
2017-03-28T01:21:08.873Z,972.7
2017-03-28T01:22:17.974Z,972.68
2017-03-28T01:23:27.688Z,972.63
2017-03-28T01:24:37.679Z,972.65
2017-03-28T01:25:47.023Z,972.65
2017-03-28T01:26:56.102Z,972.63
2017-03-28T01:28:05.143Z,972.63
2017-03-28T01:29:14.135Z,972.61
2017-03-28T01:30:24.139Z,972.6
2017-03-28T01:31:32.868Z,972.59
2017-03-28T01:32:41.649Z,972.57
2017-03-28T01:33:50.745Z,972.57
2017-03-28T01:35:00.148Z,972.53
2017-03-28T01:36:08.946Z,972.51
2017-03-28T01:37:18.032Z,972.51
2017-03-28T01:38:27.122Z,972.52
2017-03-28T01:39:36.843Z,972.49
2017-03-28T01:40:45.935Z,972.52
2017-03-28T01:41:55.024Z,972.46
2017-03-28T01:43:04.067Z,972.46
2017-03-28T01:44:12.857Z,972.44
2017-03-28T01:45:22.265Z,972.46
2017-03-28T01:46:31.962Z,972.43
2017-03-28T01:47:41.056Z,972.37
2017-03-28T01:48:50.460Z,972.39
2017-03-28T01:50:00.465Z,972.36
2017-03-28T01:51:09.523Z,972.34
2017-03-28T01:52:18.312Z,972.35
2017-03-28T01:53:27.100Z,972.35
2017-03-28T01:54:36.201Z,972.34
2017-03-28T01:55:45.020Z,972.31
2017-03-28T01:56:54.118Z,972.33
2017-03-28T01:58:03.226Z,972.29
2017-03-28T01:59:13.244Z,972.3
2017-03-28T02:00:22.964Z,972.26
2017-03-28T02:01:31.749Z,972.23
2017-03-28T02:02:40.857Z,972.22
2017-03-28T02:03:50.773Z,972.21
2017-03-28T02:05:00.171Z,972.19
2017-03-28T02:06:09.822Z,972.17
2017-03-28T02:07:18.919Z,972.21
2017-03-28T02:08:27.712Z,972.2
2017-03-28T02:09:37.412Z,972.2
2017-03-28T02:10:46.788Z,972.17
2017-03-28T02:11:55.562Z,972.21
2017-03-28T02:13:04.898Z,972.21
2017-03-28T02:14:13.718Z,972.14
2017-03-28T02:15:23.730Z,972.2
2017-03-28T02:16:32.802Z,972.17
2017-03-28T02:17:41.837Z,972.19
2017-03-28T02:18:51.854Z,972.18
2017-03-28T02:20:01.559Z,972.17
2017-03-28T02:21:10.329Z,972.16
2017-03-28T02:22:19.365Z,972.16
2017-03-28T02:23:29.058Z,972.15
2017-03-28T02:24:38.690Z,972.22
2017-03-28T02:25:47.759Z,972.19
2017-03-28T02:26:56.510Z,972.23
2017-03-28T02:28:05.909Z,972.2
2017-03-28T02:29:16.221Z,972.21
2017-03-28T02:30:25.567Z,972.19
2017-03-28T02:31:34.652Z,972.2
2017-03-28T02:32:43.736Z,972.21
2017-03-28T02:33:54.023Z,972.24
2017-03-28T02:35:03.863Z,972.23
2017-03-28T02:36:12.967Z,972.2
2017-03-28T02:37:22.055Z,972.2
2017-03-28T02:38:31.437Z,972.25
2017-03-28T02:39:40.763Z,972.23
2017-03-28T02:40:49.821Z,972.22
2017-03-28T02:41:59.239Z,972.25
2017-03-28T02:43:08.016Z,972.22
2017-03-28T02:44:17.675Z,972.25
2017-03-28T02:45:26.793Z,972.2
2017-03-28T02:46:36.186Z,972.22
2017-03-28T02:47:45.279Z,972.21
2017-03-28T02:48:54.964Z,972.17
2017-03-28T02:50:04.657Z,972.2
2017-03-28T02:51:13.940Z,972.19
2017-03-28T02:52:22.645Z,972.18
2017-03-28T02:53:31.982Z,972.2
2017-03-28T02:54:41.058Z,972.21
2017-03-28T02:55:50.391Z,972.15
2017-03-28T02:56:59.480Z,972.18
2017-03-28T02:58:08.547Z,972.16
2017-03-28T02:59:17.576Z,972.16
2017-03-28T03:00:27.265Z,972.18
2017-03-28T03:01:36.343Z,972.12
2017-03-28T03:02:45.120Z,972.13
2017-03-28T03:03:54.814Z,972.12
2017-03-28T03:05:03.900Z,972.1
2017-03-28T03:06:13.291Z,972.09
2017-03-28T03:07:26.831Z,972.11
2017-03-28T03:08:36.532Z,972.09
2017-03-28T03:09:46.517Z,972.05
2017-03-28T03:10:55.238Z,972.09
2017-03-28T03:12:04.308Z,972.06
2017-03-28T03:13:13.339Z,972.05
2017-03-28T03:14:23.242Z,972.08
2017-03-28T03:15:33.172Z,972.03
2017-03-28T03:16:42.506Z,972.07
2017-03-28T03:17:51.597Z,972.04
2017-03-28T03:19:01.008Z,972.02
2017-03-28T03:20:10.860Z,972.03
2017-03-28T03:21:19.943Z,972.04
2017-03-28T03:22:29.024Z,972.03
2017-03-28T03:23:38.964Z,972.01
2017-03-28T03:24:48.969Z,972.02
2017-03-28T03:25:58.654Z,972.02
2017-03-28T03:27:07.982Z,972.04
2017-03-28T03:28:17.116Z,971.98
2017-03-28T03:29:26.827Z,972.02
2017-03-28T03:30:36.526Z,971.99
2017-03-28T03:31:45.292Z,972.03
2017-03-28T03:32:54.337Z,972.02
2017-03-28T03:34:03.670Z,972.03
2017-03-28T03:35:13.201Z,972.01
2017-03-28T03:36:22.890Z,971.98
2017-03-28T03:37:31.656Z,972
2017-03-28T03:38:40.684Z,972.03
2017-03-28T03:39:50.074Z,972.01
2017-03-28T03:40:58.812Z,972
2017-03-28T03:42:07.575Z,971.97
2017-03-28T03:43:16.298Z,972
2017-03-28T03:44:25.992Z,971.99
2017-03-28T03:45:35.078Z,971.99
2017-03-28T03:46:43.852Z,971.99
2017-03-28T03:47:52.936Z,972.01
2017-03-28T03:49:02.332Z,971.98
2017-03-28T03:50:11.741Z,971.97
2017-03-28T03:51:20.813Z,971.99
2017-03-28T03:52:29.610Z,971.94
2017-03-28T03:53:38.701Z,971.94
2017-03-28T03:54:48.994Z,971.95
2017-03-28T03:55:58.678Z,971.95
2017-03-28T03:57:07.763Z,971.94
2017-03-28T03:58:16.843Z,971.96
2017-03-28T03:59:26.137Z,971.96
2017-03-28T04:00:35.837Z,971.99
2017-03-28T04:01:45.109Z,972.01
2017-03-28T04:02:54.451Z,972.03
2017-03-28T04:04:03.835Z,971.97
2017-03-28T04:05:13.475Z,971.99
2017-03-28T04:06:22.239Z,971.98
2017-03-28T04:07:30.948Z,971.96
2017-03-28T04:08:40.280Z,971.97
2017-03-28T04:09:50.278Z,971.98
2017-03-28T04:10:59.666Z,972.01
2017-03-28T04:12:08.689Z,972.01
2017-03-28T04:13:18.074Z,971.99
2017-03-28T04:14:27.772Z,972.01
2017-03-28T04:15:36.855Z,972.02
2017-03-28T04:16:45.938Z,972.05
2017-03-28T04:17:55.027Z,972.05
2017-03-28T04:19:04.108Z,972.03
2017-03-28T04:20:13.190Z,972.05
2017-03-28T04:21:21.970Z,971.99
2017-03-28T04:22:31.057Z,972.01
2017-03-28T04:23:40.459Z,972.04
2017-03-28T04:24:50.151Z,972
2017-03-28T04:25:59.238Z,972
2017-03-28T04:27:08.626Z,972.05
2017-03-28T04:28:18.018Z,972.05
2017-03-28T04:29:27.726Z,972.02
2017-03-28T04:30:37.125Z,972.01
2017-03-28T04:31:45.842Z,972.03
2017-03-28T04:32:55.158Z,972.04
2017-03-28T04:34:05.107Z,972.05
2017-03-28T04:35:14.505Z,972.07
2017-03-28T04:36:23.566Z,972.04
2017-03-28T04:37:32.584Z,972.04
2017-03-28T04:38:41.917Z,972.03
2017-03-28T04:39:51.907Z,972.05
2017-03-28T04:41:01.250Z,972.04
2017-03-28T04:42:10.641Z,972.07
2017-03-28T04:43:20.032Z,972.06
2017-03-28T04:44:29.721Z,972.09
2017-03-28T04:45:39.046Z,972.09
2017-03-28T04:46:47.768Z,972.12
2017-03-28T04:47:57.102Z,972.11
2017-03-28T04:49:06.206Z,972.11
2017-03-28T04:50:15.790Z,972.12
2017-03-28T04:51:24.519Z,972.1
2017-03-28T04:52:33.298Z,972.12
2017-03-28T04:53:42.690Z,972.11
2017-03-28T04:54:52.081Z,972.09
2017-03-28T04:56:01.477Z,972.15
2017-03-28T04:57:10.250Z,972.14
2017-03-28T04:58:19.617Z,972.13
2017-03-28T04:59:28.701Z,972.13
2017-03-28T05:00:38.426Z,972.17
2017-03-28T05:01:47.819Z,972.13
2017-03-28T05:02:56.586Z,972.14
2017-03-28T05:04:05.919Z,972.13
2017-03-28T05:05:15.564Z,972.15
2017-03-28T05:06:24.340Z,972.17
2017-03-28T05:07:33.126Z,972.21
2017-03-28T05:08:42.218Z,972.2
2017-03-28T05:09:51.918Z,972.25
2017-03-28T05:11:01.309Z,972.2
2017-03-28T05:12:10.089Z,972.21
2017-03-28T05:13:18.865Z,972.18
2017-03-28T05:14:28.560Z,972.21
2017-03-28T05:15:37.592Z,972.23
2017-03-28T05:16:46.353Z,972.17
2017-03-28T05:17:55.384Z,972.25
2017-03-28T05:19:05.087Z,972.24
2017-03-28T05:20:14.777Z,972.21
2017-03-28T05:21:23.847Z,972.21
2017-03-28T05:22:32.558Z,972.21
2017-03-28T05:23:42.191Z,972.21
2017-03-28T05:24:51.826Z,972.23
2017-03-28T05:26:01.160Z,972.25
2017-03-28T05:27:10.751Z,972.34
2017-03-28T05:28:19.832Z,972.26
2017-03-28T05:29:29.793Z,972.26
2017-03-28T05:30:39.177Z,972.24
2017-03-28T05:31:48.564Z,972.24
2017-03-28T05:32:57.631Z,972.24
2017-03-28T05:34:06.958Z,972.24
2017-03-28T05:35:16.298Z,972.26
2017-03-28T05:36:25.062Z,972.27
2017-03-28T05:37:34.087Z,972.26
2017-03-28T05:38:43.784Z,972.24
2017-03-28T05:39:53.178Z,972.25
2017-03-28T05:41:02.873Z,972.23
2017-03-28T05:42:12.158Z,972.27
2017-03-28T05:43:21.235Z,972.28
2017-03-28T05:44:30.939Z,972.33
2017-03-28T05:45:40.022Z,972.3
2017-03-28T05:46:48.800Z,972.28
2017-03-28T05:47:58.184Z,972.32
2017-03-28T05:49:06.967Z,972.27
2017-03-28T05:50:16.072Z,972.29
2017-03-28T05:51:25.148Z,972.29
2017-03-28T05:52:33.877Z,972.3
2017-03-28T05:53:43.578Z,972.34
2017-03-28T05:54:57.583Z,972.3
2017-03-28T05:56:06.663Z,972.34
2017-03-28T05:57:15.450Z,972.32
2017-03-28T05:58:24.226Z,972.33
2017-03-28T05:59:34.434Z,972.34
2017-03-28T06:00:43.207Z,972.34
2017-03-28T06:01:52.288Z,972.32
2017-03-28T06:03:01.379Z,972.33
2017-03-28T06:04:10.459Z,972.34
2017-03-28T06:05:19.850Z,972.34
2017-03-28T06:06:28.611Z,972.38
2017-03-28T06:07:37.941Z,972.36
2017-03-28T06:08:47.949Z,972.34
2017-03-28T06:09:57.349Z,972.36
2017-03-28T06:11:06.765Z,972.36
2017-03-28T06:12:16.101Z,972.34
2017-03-28T06:13:25.496Z,972.35
2017-03-28T06:14:34.894Z,972.27
2017-03-28T06:15:44.555Z,972.32
2017-03-28T06:16:53.327Z,972.3
2017-03-28T06:18:02.356Z,972.32
2017-03-28T06:19:11.133Z,972.33
2017-03-28T06:20:20.227Z,972.33
2017-03-28T06:21:29.617Z,972.38
2017-03-28T06:22:38.422Z,972.35
2017-03-28T06:23:48.127Z,972.36
2017-03-28T06:24:57.216Z,972.37
2017-03-28T06:26:06.255Z,972.33
2017-03-28T06:27:15.038Z,972.31
2017-03-28T06:28:24.438Z,972.3
2017-03-28T06:29:33.834Z,972.35
2017-03-28T06:30:43.224Z,972.34
2017-03-28T06:31:52.611Z,972.34
2017-03-28T06:33:01.702Z,972.3
2017-03-28T06:34:11.384Z,972.37
2017-03-28T06:35:20.419Z,972.34
2017-03-28T06:36:29.826Z,972.35
2017-03-28T06:37:39.519Z,972.33
2017-03-28T06:38:48.608Z,972.33
2017-03-28T06:39:58.601Z,972.34
2017-03-28T06:41:07.315Z,972.33
2017-03-28T06:42:16.053Z,972.32
2017-03-28T06:43:25.449Z,972.34
2017-03-28T06:44:35.146Z,972.29
2017-03-28T06:45:44.233Z,972.31
2017-03-28T06:46:53.320Z,972.33
2017-03-28T06:48:02.044Z,972.34
2017-03-28T06:49:10.829Z,972.33
2017-03-28T06:50:19.914Z,972.4
2017-03-28T06:51:29.609Z,972.37
2017-03-28T06:52:38.950Z,972.4
2017-03-28T06:53:47.735Z,972.4
2017-03-28T06:54:57.123Z,972.4
2017-03-28T06:56:06.214Z,972.45
2017-03-28T06:57:15.612Z,972.45
2017-03-28T06:58:24.703Z,972.44
2017-03-28T06:59:34.694Z,972.44
2017-03-28T07:00:43.724Z,972.44
2017-03-28T07:01:53.118Z,972.47
2017-03-28T07:03:02.208Z,972.49
2017-03-28T07:04:12.222Z,972.5
2017-03-28T07:05:22.227Z,972.49
2017-03-28T07:06:31.318Z,972.52
2017-03-28T07:07:40.410Z,972.56
2017-03-28T07:08:49.498Z,972.54
2017-03-28T07:09:58.550Z,972.54
2017-03-28T07:11:07.333Z,972.55
2017-03-28T07:12:16.413Z,972.51
2017-03-28T07:13:25.468Z,972.56
2017-03-28T07:14:34.548Z,972.53
2017-03-28T07:15:43.579Z,972.59
2017-03-28T07:16:52.354Z,972.58
2017-03-28T07:18:01.426Z,972.63
2017-03-28T07:19:10.752Z,972.62
2017-03-28T07:20:19.795Z,972.66
2017-03-28T07:21:28.567Z,972.71
2017-03-28T07:22:37.287Z,972.69
2017-03-28T07:23:46.997Z,972.69
2017-03-28T07:24:56.700Z,972.69
2017-03-28T07:26:05.790Z,972.69
2017-03-28T07:27:15.187Z,972.68
2017-03-28T07:28:24.310Z,972.7
2017-03-28T07:29:33.694Z,972.66
2017-03-28T07:30:42.427Z,972.7
2017-03-28T07:31:51.514Z,972.69
2017-03-28T07:33:00.900Z,972.68
2017-03-28T07:34:10.278Z,972.64
2017-03-28T07:35:20.025Z,972.71
2017-03-28T07:36:28.817Z,972.68
2017-03-28T07:37:38.216Z,972.69
2017-03-28T07:38:47.608Z,972.71
2017-03-28T07:39:57.611Z,972.65
2017-03-28T07:41:06.700Z,972.68
2017-03-28T07:42:15.836Z,972.64
2017-03-28T07:43:24.616Z,972.67
2017-03-28T07:44:34.339Z,972.68
2017-03-28T07:45:43.128Z,972.7
2017-03-28T07:46:52.213Z,972.68
2017-03-28T07:48:01.301Z,972.69
2017-03-28T07:49:10.366Z,972.69
2017-03-28T07:50:19.991Z,972.7
2017-03-28T07:51:28.721Z,972.7
2017-03-28T07:52:38.119Z,972.72
2017-03-28T07:53:46.909Z,972.71
2017-03-28T07:54:56.310Z,972.75
2017-03-28T07:56:05.728Z,972.75
2017-03-28T07:57:14.491Z,972.74
2017-03-28T07:58:23.258Z,972.74
2017-03-28T07:59:32.353Z,972.76
2017-03-28T08:00:41.438Z,972.74
2017-03-28T08:01:50.214Z,972.72
2017-03-28T08:02:59.564Z,972.76
2017-03-28T08:04:08.951Z,972.79
2017-03-28T08:05:18.251Z,972.78
2017-03-28T08:06:27.332Z,972.8
2017-03-28T08:07:36.108Z,972.8
2017-03-28T08:08:44.891Z,972.84
2017-03-28T08:09:53.676Z,972.8
2017-03-28T08:11:02.759Z,972.78
2017-03-28T08:12:11.531Z,972.78
2017-03-28T08:13:21.151Z,972.81
2017-03-28T08:14:30.797Z,972.84
2017-03-28T08:15:40.183Z,972.85
2017-03-28T08:16:49.574Z,972.91
2017-03-28T08:17:58.667Z,972.84
2017-03-28T08:19:08.371Z,972.84
2017-03-28T08:20:17.767Z,972.84
2017-03-28T08:21:26.855Z,972.85
2017-03-28T08:22:35.955Z,972.83
2017-03-28T08:23:44.735Z,972.85
2017-03-28T08:24:54.129Z,972.83
2017-03-28T08:26:02.914Z,972.86
2017-03-28T08:27:12.009Z,972.81
2017-03-28T08:28:20.791Z,972.84
2017-03-28T08:29:29.879Z,972.77
2017-03-28T08:30:39.260Z,972.86
2017-03-28T08:31:48.019Z,972.81
2017-03-28T08:32:57.104Z,972.87
2017-03-28T08:34:06.346Z,972.9
2017-03-28T08:35:15.765Z,972.87
2017-03-28T08:36:25.134Z,972.83
2017-03-28T08:37:33.910Z,972.85
2017-03-28T08:38:42.701Z,972.87
2017-03-28T08:39:51.784Z,972.84
2017-03-28T08:41:00.869Z,972.82
2017-03-28T08:42:09.947Z,972.86
2017-03-28T08:43:19.037Z,972.85
2017-03-28T08:44:28.114Z,972.84
2017-03-28T08:45:37.142Z,972.9
2017-03-28T08:46:46.212Z,972.89
2017-03-28T08:47:55.570Z,972.89
2017-03-28T08:49:05.271Z,972.91
2017-03-28T08:50:14.674Z,972.88
2017-03-28T08:51:23.758Z,972.91
2017-03-28T08:52:32.829Z,972.95
2017-03-28T08:53:42.471Z,972.93
2017-03-28T08:54:51.864Z,972.92
2017-03-28T08:56:01.567Z,972.93
2017-03-28T08:57:10.952Z,972.93
2017-03-28T08:58:19.985Z,972.98
2017-03-28T08:59:29.696Z,972.97
2017-03-28T09:00:38.791Z,972.95
2017-03-28T09:01:47.884Z,972.97
2017-03-28T09:02:56.980Z,972.96
2017-03-28T09:04:06.676Z,972.94
2017-03-28T09:05:15.752Z,972.98
2017-03-28T09:06:24.780Z,972.97
2017-03-28T09:07:33.558Z,972.98
2017-03-28T09:08:43.254Z,972.96
2017-03-28T09:09:52.649Z,972.96
2017-03-28T09:11:02.325Z,973.01
2017-03-28T09:12:11.338Z,973.04
2017-03-28T09:13:20.681Z,973.01
2017-03-28T09:14:29.768Z,973.03
2017-03-28T09:15:39.459Z,973.1
2017-03-28T09:16:48.229Z,973.08
2017-03-28T09:17:57.563Z,973.12
2017-03-28T09:19:06.347Z,973.13
2017-03-28T09:20:16.036Z,973.1
2017-03-28T09:21:24.746Z,973.14
2017-03-28T09:22:34.083Z,973.17
2017-03-28T09:23:43.777Z,973.13
2017-03-28T09:24:53.480Z,973.17
2017-03-28T09:26:02.569Z,973.16
2017-03-28T09:27:11.602Z,973.17
2017-03-28T09:28:21.310Z,973.25
2017-03-28T09:29:30.394Z,973.22
2017-03-28T09:30:39.468Z,973.23
2017-03-28T09:31:48.487Z,973.24
2017-03-28T09:32:57.521Z,973.21
2017-03-28T09:34:07.523Z,973.18
2017-03-28T09:35:16.910Z,973.19
2017-03-28T09:36:25.638Z,973.21
2017-03-28T09:37:34.422Z,973.2
2017-03-28T09:38:43.828Z,973.2
2017-03-28T09:39:53.515Z,973.21
2017-03-28T09:41:02.595Z,973.26
2017-03-28T09:42:11.625Z,973.25
2017-03-28T09:43:20.404Z,973.28
2017-03-28T09:44:29.493Z,973.28
2017-03-28T09:45:38.588Z,973.23
2017-03-28T09:46:47.369Z,973.28
2017-03-28T09:47:56.461Z,973.29
2017-03-28T09:49:05.855Z,973.32
2017-03-28T09:50:15.249Z,973.29
2017-03-28T09:51:24.341Z,973.29
2017-03-28T09:52:33.117Z,973.32
2017-03-28T09:53:42.175Z,973.3
2017-03-28T09:54:51.883Z,973.35
2017-03-28T09:56:01.591Z,973.39
2017-03-28T09:57:10.676Z,973.41
2017-03-28T09:58:20.077Z,973.36
2017-03-28T09:59:29.147Z,973.32
2017-03-28T10:00:38.488Z,973.33
2017-03-28T10:01:47.259Z,973.36
2017-03-28T10:02:55.993Z,973.34
2017-03-28T10:04:05.389Z,973.34
2017-03-28T10:05:15.386Z,973.36
2017-03-28T10:06:24.121Z,973.36
2017-03-28T10:07:33.522Z,973.32
2017-03-28T10:08:43.837Z,973.32
2017-03-28T10:09:52.930Z,973.36
2017-03-28T10:11:02.324Z,973.34
2017-03-28T10:12:11.408Z,973.33
2017-03-28T10:13:20.505Z,973.37
2017-03-28T10:14:29.597Z,973.33
2017-03-28T10:15:38.365Z,973.37
2017-03-28T10:16:48.008Z,973.42
2017-03-28T10:17:56.802Z,973.54
2017-03-28T10:19:06.201Z,973.51
2017-03-28T10:20:14.981Z,973.37
2017-03-28T10:21:24.684Z,973.37
2017-03-28T10:22:33.762Z,973.41
2017-03-28T10:23:43.407Z,973.37
2017-03-28T10:24:52.493Z,973.4
2017-03-28T10:26:01.902Z,973.39
2017-03-28T10:27:11.291Z,973.41
2017-03-28T10:28:20.377Z,973.45
2017-03-28T10:29:29.448Z,973.48
2017-03-28T10:30:38.407Z,973.48
2017-03-28T10:31:47.594Z,973.45
2017-03-28T10:32:57.612Z,973.45
2017-03-28T10:34:07.313Z,973.4
2017-03-28T10:35:16.411Z,973.4
2017-03-28T10:36:25.191Z,973.41
2017-03-28T10:37:33.973Z,973.46
2017-03-28T10:38:42.760Z,973.43
2017-03-28T10:39:52.764Z,973.42
2017-03-28T10:41:01.810Z,973.42
2017-03-28T10:42:11.205Z,973.46
2017-03-28T10:43:20.289Z,973.45
2017-03-28T10:44:29.385Z,973.43
2017-03-28T10:45:38.470Z,973.43
2017-03-28T10:46:47.253Z,973.47
2017-03-28T10:47:56.043Z,973.46
2017-03-28T10:49:05.744Z,973.48
2017-03-28T10:50:15.189Z,973.45
2017-03-28T10:51:24.575Z,973.46
2017-03-28T10:52:34.166Z,973.46
2017-03-28T10:53:43.261Z,973.5
2017-03-28T10:54:52.353Z,973.49
2017-03-28T10:56:02.062Z,973.5
2017-03-28T10:57:10.849Z,973.49
2017-03-28T10:58:19.937Z,973.5
2017-03-28T10:59:29.337Z,973.48
2017-03-28T11:00:38.430Z,973.43
2017-03-28T11:01:47.216Z,973.48
2017-03-28T11:02:56.271Z,973.49
2017-03-28T11:04:05.374Z,973.52
2017-03-28T11:05:14.788Z,973.48
2017-03-28T11:06:24.195Z,973.47
2017-03-28T11:07:33.886Z,973.5
2017-03-28T11:08:42.925Z,973.5
2017-03-28T11:09:52.941Z,973.49
2017-03-28T11:11:01.936Z,973.46
2017-03-28T11:12:11.001Z,973.46
2017-03-28T11:13:19.735Z,973.5
2017-03-28T11:14:28.863Z,973.43
2017-03-28T11:15:37.951Z,973.45
2017-03-28T11:16:46.989Z,973.43
2017-03-28T11:17:55.777Z,973.45
2017-03-28T11:19:05.177Z,973.44
2017-03-28T11:20:14.586Z,973.44
2017-03-28T11:21:23.375Z,973.43
2017-03-28T11:22:32.149Z,973.39
2017-03-28T11:23:41.181Z,973.41
2017-03-28T11:24:50.584Z,973.4
2017-03-28T11:26:00.018Z,973.48
2017-03-28T11:27:09.123Z,973.48
2017-03-28T11:28:17.907Z,973.47
2017-03-28T11:29:27.815Z,973.49
2017-03-28T11:30:37.217Z,973.45
2017-03-28T11:31:46.312Z,973.44
2017-03-28T11:32:55.349Z,973.45
2017-03-28T11:34:04.689Z,973.44
2017-03-28T11:35:14.095Z,973.43
2017-03-28T11:36:22.887Z,973.45
2017-03-28T11:37:31.989Z,973.5
2017-03-28T11:38:41.073Z,973.47
2017-03-28T11:39:50.741Z,973.37
2017-03-28T11:41:00.129Z,973.31
2017-03-28T11:42:09.167Z,973.37
2017-03-28T11:43:18.267Z,973.39
2017-03-28T11:44:27.660Z,973.43
2017-03-28T11:45:36.706Z,973.44
2017-03-28T11:46:45.788Z,973.38
2017-03-28T11:47:55.118Z,973.38
2017-03-28T11:49:04.767Z,973.38
2017-03-28T11:50:14.688Z,973.37
2017-03-28T11:51:24.063Z,973.39
2017-03-28T11:52:32.851Z,973.34
2017-03-28T11:53:41.951Z,973.33
2017-03-28T11:54:51.041Z,973.29
2017-03-28T11:56:00.437Z,973.32
2017-03-28T11:57:09.208Z,973.3
2017-03-28T11:58:18.245Z,973.32
2017-03-28T11:59:27.650Z,973.33
2017-03-28T12:00:36.756Z,973.31
2017-03-28T12:01:46.445Z,973.29
2017-03-28T12:02:55.791Z,973.31
2017-03-28T12:04:04.580Z,973.28
2017-03-28T12:05:13.372Z,973.25
2017-03-28T12:06:22.769Z,973.22
2017-03-28T12:07:32.168Z,973.23
2017-03-28T12:08:41.257Z,973.14
2017-03-28T12:09:50.040Z,973.14
2017-03-28T12:10:58.827Z,973.19
2017-03-28T12:12:07.906Z,973.12
2017-03-28T12:13:16.640Z,973.15
2017-03-28T12:14:25.430Z,973.15
2017-03-28T12:15:34.425Z,973.13
2017-03-28T12:16:43.232Z,973.11
2017-03-28T12:17:52.024Z,973.09
2017-03-28T12:19:00.831Z,973.1
2017-03-28T12:20:09.625Z,973.09
2017-03-28T12:21:18.710Z,973.1
2017-03-28T12:22:27.808Z,973.07
2017-03-28T12:23:36.595Z,973.05
2017-03-28T12:24:45.373Z,973.12
2017-03-28T12:25:54.958Z,973.02
2017-03-28T12:27:04.296Z,973.05
2017-03-28T12:28:13.381Z,973.02
2017-03-28T12:29:22.164Z,973.08
2017-03-28T12:30:31.248Z,973.02
2017-03-28T12:31:40.028Z,973
2017-03-28T12:32:49.113Z,973.03
2017-03-28T12:33:58.201Z,973.07
2017-03-28T12:35:06.996Z,973.02
2017-03-28T12:36:16.085Z,973.08
2017-03-28T12:37:24.875Z,973.03
2017-03-28T12:38:33.641Z,973.02
2017-03-28T12:39:42.678Z,973.01
2017-03-28T12:40:51.746Z,973.03
2017-03-28T12:42:00.512Z,973
2017-03-28T12:43:09.306Z,972.99
2017-03-28T12:44:18.389Z,972.96
2017-03-28T12:45:27.180Z,973.01
2017-03-28T12:46:35.968Z,972.95
2017-03-28T12:47:44.744Z,972.94
2017-03-28T12:48:53.772Z,972.99
2017-03-28T12:50:02.543Z,973
2017-03-28T12:51:11.576Z,972.99
2017-03-28T12:52:20.673Z,972.98
2017-03-28T12:53:29.775Z,972.95
2017-03-28T12:54:39.877Z,972.95
2017-03-28T12:55:49.273Z,972.95
2017-03-28T12:56:58.040Z,972.94
2017-03-28T12:58:07.374Z,972.96
2017-03-28T12:59:16.409Z,972.96
2017-03-28T13:00:25.186Z,972.99
2017-03-28T13:01:34.213Z,973
2017-03-28T13:02:43.296Z,972.97
2017-03-28T13:03:52.072Z,973
2017-03-28T13:05:01.453Z,973.03
2017-03-28T13:06:10.237Z,973.04
2017-03-28T13:07:19.382Z,972.99
2017-03-28T13:08:28.467Z,972.93
2017-03-28T13:09:37.545Z,972.97
2017-03-28T13:10:46.281Z,973
2017-03-28T13:11:55.056Z,972.94
2017-03-28T13:13:04.131Z,972.89
2017-03-28T13:14:12.882Z,972.93
2017-03-28T13:15:21.685Z,972.91
2017-03-28T13:16:30.471Z,972.97
2017-03-28T13:17:40.167Z,973.02
2017-03-28T13:18:49.257Z,972.93
2017-03-28T13:19:58.039Z,972.96
2017-03-28T13:21:07.115Z,972.97
2017-03-28T13:22:16.752Z,972.97
2017-03-28T13:23:25.516Z,972.94
2017-03-28T13:24:34.283Z,972.94
2017-03-28T13:25:43.318Z,972.89
2017-03-28T13:26:52.340Z,972.88
2017-03-28T13:28:01.070Z,972.82
2017-03-28T13:29:10.159Z,972.82
2017-03-28T13:30:18.943Z,972.83
2017-03-28T13:31:28.013Z,972.83
2017-03-28T13:32:37.351Z,972.74
2017-03-28T13:33:46.452Z,972.8
2017-03-28T13:34:55.854Z,972.72
2017-03-28T13:36:04.633Z,972.81
2017-03-28T13:37:13.718Z,972.71
2017-03-28T13:38:22.496Z,972.77
2017-03-28T13:39:31.269Z,972.73
2017-03-28T13:40:40.602Z,972.73
2017-03-28T13:41:49.381Z,972.75
2017-03-28T13:42:58.310Z,972.74
2017-03-28T13:44:07.092Z,972.77
2017-03-28T13:45:16.182Z,972.74
2017-03-28T13:46:25.263Z,972.75
2017-03-28T13:47:34.594Z,972.75
2017-03-28T13:48:43.684Z,972.68
2017-03-28T13:49:53.063Z,972.72
2017-03-28T13:51:02.380Z,972.76
2017-03-28T13:52:11.410Z,972.77
2017-03-28T13:53:20.189Z,972.63
2017-03-28T13:54:28.972Z,972.64
2017-03-28T13:55:38.697Z,972.66
2017-03-28T13:56:47.779Z,972.7
2017-03-28T13:57:56.877Z,972.61
2017-03-28T13:59:05.958Z,972.61
2017-03-28T14:00:14.742Z,972.61
2017-03-28T14:01:23.633Z,972.59
2017-03-28T14:02:32.424Z,972.63
2017-03-28T14:03:41.216Z,972.62
2017-03-28T14:04:50.301Z,972.59
2017-03-28T14:05:59.391Z,972.53
2017-03-28T14:07:08.487Z,972.58
2017-03-28T14:08:17.312Z,972.65
2017-03-28T14:09:26.096Z,972.6
2017-03-28T14:10:34.879Z,972.58
2017-03-28T14:11:43.661Z,972.58
2017-03-28T14:12:52.752Z,972.54
2017-03-28T14:14:01.837Z,972.56
2017-03-28T14:15:10.929Z,972.6
2017-03-28T14:16:19.714Z,972.55
2017-03-28T14:17:28.494Z,972.54
2017-03-28T14:18:37.267Z,972.53
2017-03-28T14:19:46.501Z,972.51
2017-03-28T14:20:55.282Z,972.59
2017-03-28T14:22:04.371Z,972.63
2017-03-28T14:23:13.767Z,972.56
2017-03-28T14:24:22.859Z,972.64
2017-03-28T14:25:31.647Z,972.64
2017-03-28T14:26:40.727Z,972.56